Jemez Springs, Valles Caldera, New Mexico Weather observations

Data are for 10 minute period ending at time listed.
 Day   Time   Solar   Ave.   Ave.  Ave.  Vector  Max.   Baro.   Total    
  of    of     Rad.   Air    Rel.  Wind   Wind   Wind  Press.  Precip.   
Year   Day            Temp.  Hum.  Speed  Dir.   Gust                    
2014   (MST)  Kw/m2    F      %     mph   deg.    mph    mb.     in.     
-------------------------------------------------------------------------
 293   21:30   0.00   52.8    62    5.0     4     7.8   812.2    0.00 
 293   21:40   0.00   52.6    62    5.1     1     9.0   812.2    0.00 
 293   21:50   0.00   52.4    62    5.6    13     9.6   812.2    0.00 
 293   22:00   0.00   51.9    63    4.6    16     8.4   812.1    0.00 
 293   22:10   0.00   51.5    64    4.8    12     9.0   812.0    0.00 
 293   22:20   0.00   51.1    64    5.7    16     9.0   812.0    0.00 
 293   22:30   0.00   50.7    66    5.6    12    10.2   812.0    0.00 
 293   22:40   0.00   50.8    65    5.5   356     9.0   811.9    0.00 
 293   22:50   0.00   51.0    65    3.8   352     7.2   811.9    0.00 
 293   23:00   0.00   51.1    65    5.9    18    11.3   811.7    0.00 
 293   23:10   0.00   51.1    65    5.1     1     9.6   811.8    0.00 
 293   23:20   0.00   50.9    66    5.0    19     9.0   811.8    0.00 
 293   23:30   0.00   50.8    66    6.2    16     9.6   811.9    0.00 
 293   23:40   0.00   50.8    66    5.0     6     9.0   811.8    0.00 
 293   23:50   0.00   50.8    66    5.6     7    10.2   811.8    0.00 
 294    0:00   0.00   50.8    66    5.2    13     9.0   811.8    0.00 
 294    0:10   0.00   50.5    67    5.8    16     9.6   811.8    0.00 
 294    0:20   0.00   50.5    67    5.0    17     9.0   811.7    0.00 
 294    0:30   0.00   50.4    68    5.7    24     9.6   811.7    0.00 
 294    0:40   0.00   50.1    68    5.8    13    10.8   811.7    0.00 
 294    0:50   0.00   49.9    69    6.0    13    10.8   811.6    0.00 
 294    1:00   0.00   49.8    70    4.7    11     9.6   811.5    0.00 
 294    1:10   0.00   49.3    71    3.2    13     6.0   811.4    0.00 
 294    1:20   0.00   48.8    72    5.1     5     9.0   811.3    0.00 
 294    1:30   0.00   48.7    72    3.5   359     7.8   811.3    0.00 
 294    1:40   0.00   48.3    73    3.1   356     5.4   811.3    0.00 
 294    1:50   0.00   47.7    75    3.0    34     6.0   811.3    0.00 
 294    2:00   0.00   47.4    76    3.3    60     5.4   811.3    0.00 
 294    2:10   0.00   47.2    76    2.5   360     5.4   811.1    0.00 
 294    2:20   0.00   46.8    78    2.6    18     5.4   811.1    0.00 
 294    2:30   0.00   46.8    78    4.8   355     7.8   811.1    0.00 
 294    2:40   0.00   47.1    77    4.7   354     7.2   810.9    0.00 
 294    2:50   0.00   46.9    78    4.1    12     7.8   810.9    0.00 
 294    3:00   0.00   46.8    78    4.3    12     7.5   810.9    0.00 
 294    3:10   0.00   46.6    78    3.4    31     7.2   810.9    0.00 
 294    3:20   0.00   46.9    78    3.7    26     7.2   811.0    0.00 
 294    3:30   0.00   47.3    77    4.6    22     8.4   811.0    0.00 
 294    3:40   0.00   47.7    76    3.7    12     6.9   810.9    0.00 
 294    3:50   0.00   48.0    75    4.8    13     7.8   810.9    0.00 
 294    4:00   0.00   48.2    75    3.6   358     6.0   810.9    0.00 
 294    4:10   0.00   48.6    74    4.2     4     7.2   810.9    0.00 
 294    4:20   0.00   49.0    73    3.7     6     6.0   810.9    0.00 
 294    4:30   0.00   49.1    73    3.1     0     6.0   810.8    0.00 
 294    4:40   0.00   49.4    72    3.0    13     4.8   810.9    0.00 
 294    4:50   0.00   49.4    72    2.9     8     6.0   811.0    0.00 
 294    5:00   0.00   49.5    73    0.7    33     3.0   811.0    0.00 
 294    5:10   0.00   49.4    73    2.3    38     4.2   811.0    0.00 
 294    5:20   0.00   49.5    73    3.1     8     6.0   811.0    0.00 
 294    5:30   0.00   49.7    73    3.9    24     7.2   811.0    0.00 
 294    5:40   0.00   49.8    72    3.7    22     6.0   811.0    0.00 
 294    5:50   0.00   49.9    72    4.5    11     7.8   810.9    0.00 
 294    6:00   0.00   50.1    71    3.3    18     6.6   811.0    0.00 
 294    6:10   0.00   50.1    71    3.1     5     6.6   811.0    0.00 
 294    6:20   0.00   50.0    72    3.3    27     7.2   811.1    0.00 
 294    6:30   0.00   49.9    72    4.2    15     7.2   811.1    0.00 
 294    6:40   0.00   50.1    72    4.6    22     7.2   811.0    0.00 
 294    6:50   0.01   50.4    71    4.0     8     7.2   811.0    0.00 
 294    7:00   0.01   50.6    71    3.9    16     7.2   811.0    0.00 
 294    7:10   0.01   50.7    71    4.2    13     8.1   811.0    0.00 
 294    7:20   0.01   50.8    71    4.3    17     7.2   811.1    0.00 
 294    7:30   0.03   51.1    71    5.0     9     9.0   811.1    0.00 
 294    7:40   0.07   51.7    70    6.5    11    10.8   811.0    0.00 
 294    7:50   0.10   52.7    69    5.7     5    11.9   811.0    0.00 
 294    8:00   0.20   53.7    68    5.0    13     9.0   811.1    0.00 
 294    8:10   0.40   56.8    62    5.1     4     9.6   811.0    0.00 
 294    8:20   0.49   59.1    58    4.6    37     7.8   811.0    0.00 
 294    8:30   0.33   59.7    56    3.1    26     6.0   811.1    0.00 
 294    8:40   0.18   59.5    55    3.4    12     6.6   810.9    0.00 
 294    8:50   0.18   58.5    57    1.5   168     4.2   811.0    0.00 
 294    9:00   0.17   59.0    57    2.3   189     7.8   811.0    0.00 
 294    9:10   0.14   58.1    58    4.2   202     7.2   811.0    0.00 
 294    9:20   0.11   57.9    58    3.7   210     7.8   811.1    0.00 
 294    9:30   0.18   57.7    59    5.3   204     9.0   811.1    0.00 
 294    9:40   0.25   58.9    57    2.4   208     6.6   811.0    0.00 
 294    9:50   0.26   59.3    57    4.6   201     9.6   810.9    0.00 
 294   10:00   0.21   58.3    59    5.7   194     9.6   810.9    0.00 
 294   10:10   0.23   58.2    60    5.4   181     9.6   810.9    0.00 
 294   10:20   0.19   58.0    60    6.0   170     9.6   810.9    0.00 
 294   10:30   0.17   57.9    61    5.6   176     9.0   810.9    0.00 
 294   10:40   0.15   57.8    61    6.1   177     9.6   810.9    0.00 
 294   10:50   0.15   57.9    61    4.7   189     9.0   810.8    0.00 
 294   11:00   0.14   58.2    60    4.5   164     9.6   810.8    0.00 
 294   11:10   0.14   58.4    60    4.5   170     9.0   810.7    0.00 
 294   11:20   0.12   58.4    59    5.7   183     9.6   810.7    0.00 
 294   11:30   0.09   58.1    60    5.8   181    10.2   810.7    0.00 
 294   11:40   0.08   57.7    61    7.2   178    12.5   810.6    0.00 
 294   11:50   0.11   57.6    62    4.8   182     8.4   810.5    0.00 
 294   12:00   0.16   58.0    61    5.1   174     8.4   810.4    0.00 
 294   12:10   0.20   58.6    60    3.4   190     6.6   810.3    0.00 
 294   12:20   0.18   58.4    60    4.7   192     9.6   810.2    0.00 
 294   12:30   0.22   58.9    59    3.9   186     7.2   810.1    0.00 
 294   12:40   0.35   59.4    58    5.2   176    10.8   810.0    0.00 
 294   12:50   0.78   60.7    56    4.5   171     7.2   809.7    0.00 
 294   13:00   0.74   61.9    53    4.0   161     9.0   809.5    0.00 
 294   13:10   0.75   63.4    48    4.0   177     9.0   809.1    0.00 
 294   13:20   0.73   63.2    49    3.9   197    10.2   808.8    0.00 
 294   13:30   0.72   63.9    46    5.2   173     9.6   808.7    0.00 
 294   13:40   0.62   64.0    46    4.4   118     9.0   808.5    0.00 
 294   13:50   0.64   64.7    46    5.3   208    10.5   808.4    0.00 
 294   14:00   0.65   65.5    44    5.8   212    11.9   808.3    0.00 
 294   14:10   0.62   64.7    45    6.4   209    13.7   808.3    0.00 
 294   14:20   0.59   64.6    45    6.1   179    14.9   808.3    0.00 
 294   14:30   0.57   64.7    45    6.8   175    11.3   808.2    0.00 
 294   14:40   0.55   65.5    43    6.6   184    11.3   808.2    0.00 
 294   14:50   0.52   65.0    43    6.1   190    11.3   808.1    0.00 
 294   15:00   0.48   64.8    44    5.7   173    11.3   808.0    0.00 
 294   15:10   0.41   65.6    42    5.0   207    10.2   808.0    0.00 
 294   15:20   0.32   65.3    41    4.9   204     8.4   807.9    0.00 
 294   15:30   0.26   63.4    42    5.4   186    10.8   807.9    0.00 
 294   15:40   0.19   63.4    42    5.1   188     7.8   807.8    0.00 
 294   15:50   0.24   63.2    43    4.8   179     7.8   807.7    0.00 
 294   16:00   0.18   62.9    43    4.4   195     7.5   807.7    0.00 
 294   16:10   0.05   62.0    44    4.6   185     7.8   807.8    0.00 
 294   16:20   0.03   61.6    46    4.2   198     8.4   807.7    0.00 
 294   16:30   0.02   61.2    47    2.5   204     6.6   807.7    0.00 
 294   16:40   0.02   60.6    49    2.2   220     6.0   807.8    0.00 
 294   16:50   0.02   59.9    50    1.8   262     4.2   807.7    0.00 
 294   17:00   0.01   58.7    54    0.0     0     0.0   807.9    0.00 
 294   17:10   0.01   57.3    57    0.0     0     0.0   807.9    0.00 
 294   17:20   0.01   55.9    60    0.1    38     2.4   808.0    0.00 
 294   17:30   0.00   55.0    62    1.3    22     3.0   808.0    0.00 
 294   17:40   0.00   54.0    64    2.6    28     4.2   808.2    0.00 
 294   17:50   0.00   53.7    64    2.9    21     4.8   808.3    0.00 
 294   18:00   0.00   53.7    64    3.3    25     4.8   808.3    0.00 
 294   18:10   0.00   53.5    66    3.3    20     6.0   808.4    0.00 
 294   18:20   0.00   52.9    68    4.1    29     7.2   808.6    0.00 
 294   18:30   0.00   52.7    69    5.5    12     8.4   808.7    0.00 
 294   18:40   0.00   52.7    69    5.0    17     7.2   808.8    0.00 
 294   18:50   0.00   52.5    69    5.2    23     9.6   808.9    0.00 
 294   19:00   0.00   52.7    69    5.5    16     8.4   809.0    0.00 
 294   19:10   0.00   52.7    69    5.2    24     7.8   809.1    0.00 
 294   19:20   0.00   53.0    68    5.0    11     7.8   809.1    0.00 
 294   19:30   0.00   53.2    67    4.9     8     8.4   809.2    0.00 
 294   19:40   0.00   53.3    67    4.7     3     8.4   809.2    0.00 
 294   19:50   0.00   53.2    67    4.2   358     9.0   809.2    0.00 
 294   20:00   0.00   52.9    67    3.9     5     6.6   809.2    0.00 
 294   20:10   0.00   52.4    68    4.6    10     6.6   809.3    0.00 
 294   20:20   0.00   51.8    70    4.7     9     6.9   809.5    0.00 
 294   20:30   0.00   51.6    70    4.9    19     7.8   809.6    0.00 
 294   20:40   0.00   51.5    70    6.1     6    10.2   809.7    0.00 
 294   20:50   0.00   51.8    70    4.9     9     7.8   809.8    0.00 
 294   21:00   0.00   51.7    70    3.9    20     7.8   809.9    0.00 
 294   21:10   0.00   51.6    70    5.9     9     8.4   810.0    0.00 
 294   21:20   0.00   51.4    70    4.8     9     7.8   810.0    0.00 

Return to Jemez Springs, Valles Caldera graphs page.


Western Regional Climate Center,wrcc@dri.edu